createdAt,value
2023-02-13T00:02:05.556Z,15.40
2023-02-13T00:04:35.137Z,14.90
2023-02-13T00:07:03.936Z,14.37
2023-02-13T00:09:31.945Z,15.50
2023-02-13T00:12:00.180Z,17.57
2023-02-13T00:14:28.517Z,15.13
2023-02-13T00:16:56.529Z,13.50
2023-02-13T00:19:25.422Z,17.03
2023-02-13T00:21:54.957Z,14.83
2023-02-13T00:24:23.816Z,14.20
2023-02-13T00:26:52.042Z,18.73
2023-02-13T00:29:20.655Z,14.30
2023-02-13T00:31:49.085Z,15.27
2023-02-13T00:34:17.201Z,15.23
2023-02-13T00:36:45.466Z,14.57
2023-02-13T00:39:14.991Z,14.03
2023-02-13T00:41:43.091Z,16.10
2023-02-13T00:44:11.661Z,16.20
2023-02-13T00:46:39.980Z,13.80
2023-02-13T00:49:08.447Z,13.23
2023-02-13T00:51:36.782Z,17.00
2023-02-13T00:54:05.240Z,15.50
2023-02-13T00:56:34.679Z,14.77
2023-02-13T00:59:02.633Z,14.90
2023-02-13T01:01:30.711Z,18.23
2023-02-13T01:03:59.017Z,17.67
2023-02-13T01:06:27.773Z,16.13
2023-02-13T01:08:55.844Z,15.17
2023-02-13T01:11:26.297Z,19.50
2023-02-13T01:13:55.750Z,14.80
2023-02-13T01:16:23.861Z,17.20
2023-02-13T01:18:51.953Z,15.10
2023-02-13T01:21:22.167Z,17.90
2023-02-13T01:23:51.652Z,15.10
2023-02-13T01:26:22.284Z,15.67
2023-02-13T01:28:53.677Z,15.57
2023-02-13T01:31:23.649Z,15.63
2023-02-13T01:33:52.357Z,15.23
2023-02-13T01:36:20.324Z,16.73
2023-02-13T01:38:48.707Z,16.10
2023-02-13T01:41:16.719Z,16.23
2023-02-13T01:43:47.498Z,17.00
2023-02-13T01:46:19.668Z,18.73
2023-02-13T01:48:50.897Z,16.47
2023-02-13T01:51:23.549Z,15.37
2023-02-13T01:53:56.238Z,19.83
2023-02-13T01:56:28.464Z,16.23
2023-02-13T01:59:01.167Z,18.37
2023-02-13T02:01:30.429Z,18.40
2023-02-13T02:04:06.143Z,21.37
2023-02-13T02:06:40.187Z,16.30
2023-02-13T02:09:15.590Z,18.87
2023-02-13T02:11:52.838Z,17.03
2023-02-13T02:14:21.516Z,18.23
2023-02-13T02:16:49.718Z,21.83
2023-02-13T02:19:28.096Z,18.03
2023-02-13T02:22:16.857Z,17.57
2023-02-13T02:25:19.921Z,18.60
2023-02-13T02:28:08.470Z,22.20
2023-02-13T02:31:24.190Z,17.50
2023-02-13T02:34:08.542Z,18.83
2023-02-13T02:36:48.362Z,22.73
2023-02-13T02:39:27.656Z,19.10
2023-02-13T02:42:04.499Z,21.60
2023-02-13T02:44:36.334Z,19.57
2023-02-13T02:47:29.145Z,19.03
2023-02-13T02:50:18.160Z,20.03
2023-02-13T02:52:58.431Z,20.43
2023-02-13T02:55:36.904Z,21.03
2023-02-13T02:58:33.428Z,21.23
2023-02-13T03:01:21.573Z,19.63
2023-02-13T03:04:08.041Z,16.60
2023-02-13T03:06:42.153Z,18.27
2023-02-13T03:09:34.135Z,18.60
2023-02-13T03:12:21.873Z,18.03
2023-02-13T03:14:50.088Z,15.90
2023-02-13T03:17:37.735Z,18.90
2023-02-13T03:20:36.133Z,19.60
2023-02-13T03:23:18.649Z,22.80
2023-02-13T03:26:07.242Z,17.47
2023-02-13T03:29:10.302Z,17.47
2023-02-13T03:31:47.755Z,16.50
2023-02-13T03:34:20.526Z,17.80
2023-02-13T03:37:09.678Z,16.33
2023-02-13T03:39:49.312Z,18.57
2023-02-13T03:42:24.729Z,20.27
2023-02-13T03:45:11.254Z,14.57
2023-02-13T03:47:40.536Z,16.97
2023-02-13T03:50:09.978Z,16.73
2023-02-13T03:52:42.772Z,15.43
2023-02-13T03:55:32.693Z,14.97
2023-02-13T03:58:22.072Z,15.47
2023-02-13T04:00:54.054Z,18.47
2023-02-13T04:03:27.443Z,17.97
2023-02-13T04:06:00.663Z,15.00
2023-02-13T04:08:28.850Z,15.70
2023-02-13T04:11:07.199Z,12.57
2023-02-13T04:13:37.624Z,12.90
2023-02-13T04:16:12.839Z,13.43
2023-02-13T04:18:41.337Z,15.33
2023-02-13T04:21:09.441Z,14.23
2023-02-13T04:23:37.855Z,12.50
2023-02-13T04:26:15.410Z,11.97
2023-02-13T04:28:43.336Z,15.13
2023-02-13T04:31:11.942Z,15.70
2023-02-13T04:33:40.015Z,14.73
2023-02-13T04:36:08.710Z,12.63
2023-02-13T04:38:36.724Z,16.67
2023-02-13T04:41:04.733Z,13.50
2023-02-13T04:43:34.305Z,15.07
2023-02-13T04:46:02.511Z,13.07
2023-02-13T04:48:30.833Z,13.83
2023-02-13T04:50:59.427Z,16.37
2023-02-13T04:53:27.692Z,13.83
2023-02-13T04:55:55.732Z,14.33
2023-02-13T04:58:23.951Z,17.70
2023-02-13T05:00:53.566Z,13.53
2023-02-13T05:03:21.898Z,14.87
2023-02-13T05:05:50.258Z,14.90
2023-02-13T05:08:18.468Z,13.30
2023-02-13T05:10:46.774Z,14.07
2023-02-13T05:13:16.880Z,11.43
2023-02-13T05:15:45.262Z,14.43
2023-02-13T05:18:15.632Z,13.87
2023-02-13T05:20:43.740Z,13.50
2023-02-13T05:23:23.228Z,16.47
2023-02-13T05:25:51.968Z,14.67
2023-02-13T05:28:37.712Z,11.07
2023-02-13T05:31:06.402Z,15.20
2023-02-13T05:33:36.314Z,15.60
2023-02-13T05:36:04.663Z,14.33
2023-02-13T05:38:32.681Z,15.03
2023-02-13T05:41:01.296Z,13.83
2023-02-13T05:43:29.451Z,11.53
2023-02-13T05:46:04.988Z,14.90
2023-02-13T05:48:33.189Z,15.50
2023-02-13T05:51:02.986Z,13.80
2023-02-13T05:53:31.044Z,13.30
2023-02-13T05:55:59.056Z,15.63
2023-02-13T05:58:27.135Z,11.43
2023-02-13T06:00:58.638Z,13.27
2023-02-13T06:03:27.799Z,13.50
2023-02-13T06:05:56.647Z,12.93
2023-02-13T06:08:27.361Z,14.47
2023-02-13T06:10:55.820Z,10.13
2023-02-13T06:13:24.137Z,13.83
2023-02-13T06:15:52.496Z,13.37
2023-02-13T06:18:20.570Z,12.97
2023-02-13T06:20:48.507Z,12.33
2023-02-13T06:23:18.784Z,11.33
2023-02-13T06:25:48.244Z,11.13
2023-02-13T06:28:16.601Z,9.60
2023-02-13T06:30:44.783Z,12.03
2023-02-13T06:33:12.961Z,12.27
2023-02-13T06:35:41.116Z,17.27
2023-02-13T06:38:09.248Z,12.97
2023-02-13T06:40:37.335Z,14.27
2023-02-13T06:43:06.920Z,12.40
2023-02-13T06:45:35.017Z,14.77
2023-02-13T06:48:03.155Z,13.07
2023-02-13T06:50:32.441Z,13.83
2023-02-13T06:53:01.196Z,13.17
2023-02-13T06:55:29.923Z,12.87
2023-02-13T06:57:58.026Z,13.50
2023-02-13T07:00:27.862Z,14.40
2023-02-13T07:02:55.988Z,18.23
2023-02-13T07:05:24.004Z,16.53
2023-02-13T07:07:52.145Z,14.30
2023-02-13T07:10:20.478Z,13.17
2023-02-13T07:13:03.643Z,13.83
2023-02-13T07:15:35.806Z,13.10
2023-02-13T07:18:05.860Z,11.53
2023-02-13T07:20:34.549Z,12.47
2023-02-13T07:23:03.718Z,12.10
2023-02-13T07:25:33.039Z,12.90
2023-02-13T07:28:04.889Z,15.37
2023-02-13T07:30:36.036Z,13.57
2023-02-13T07:33:04.987Z,13.97
2023-02-13T07:35:33.135Z,13.47
2023-02-13T07:38:01.311Z,11.27
2023-02-13T07:40:29.659Z,12.63
2023-02-13T07:43:01.114Z,14.73
2023-02-13T07:45:29.169Z,21.73
2023-02-13T07:47:59.942Z,56.73
2023-02-13T07:50:28.561Z,13.13
2023-02-13T07:52:56.793Z,15.27
2023-02-13T07:55:25.061Z,13.20
2023-02-13T07:57:53.367Z,13.97
2023-02-13T08:00:22.464Z,14.97
2023-02-13T08:02:50.565Z,15.80
2023-02-13T08:05:20.661Z,16.80
2023-02-13T08:07:48.783Z,13.23
2023-02-13T08:10:34.770Z,14.47
2023-02-13T08:13:02.854Z,15.60
2023-02-13T08:15:30.942Z,14.40
2023-02-13T08:17:59.233Z,14.50
2023-02-13T08:20:29.013Z,13.30
2023-02-13T08:23:07.203Z,15.47
2023-02-13T08:25:36.316Z,15.20
2023-02-13T08:28:04.541Z,14.33
2023-02-13T08:30:35.773Z,15.60
2023-02-13T08:33:04.588Z,14.10
2023-02-13T08:35:34.755Z,15.07
2023-02-13T08:38:06.528Z,15.37
2023-02-13T08:40:36.713Z,13.07
2023-02-13T08:43:07.954Z,14.47
2023-02-13T08:45:37.190Z,16.57
2023-02-13T08:48:05.606Z,16.03
2023-02-13T08:50:37.004Z,19.00
2023-02-13T08:53:05.582Z,15.90
2023-02-13T08:55:33.868Z,23.27
2023-02-13T08:58:03.217Z,15.97
2023-02-13T09:00:32.135Z,19.87
2023-02-13T09:03:03.296Z,15.23
2023-02-13T09:05:32.797Z,13.60
2023-02-13T09:08:03.927Z,13.73
2023-02-13T09:10:32.403Z,16.07
2023-02-13T09:13:01.426Z,16.87
2023-02-13T09:15:29.422Z,15.77
2023-02-13T09:17:57.507Z,13.83
2023-02-13T09:20:26.048Z,18.40
2023-02-13T09:22:56.043Z,14.27
2023-02-13T09:25:25.830Z,12.03
2023-02-13T09:27:53.855Z,13.37
2023-02-13T09:30:24.613Z,15.53
2023-02-13T09:32:53.230Z,11.60
2023-02-13T09:35:22.361Z,12.80
2023-02-13T09:37:50.972Z,13.37
2023-02-13T09:40:24.243Z,14.50
2023-02-13T09:42:54.630Z,19.73
2023-02-13T09:45:23.752Z,10.47
2023-02-13T09:47:52.110Z,12.00
2023-02-13T09:50:24.798Z,11.07
2023-02-13T09:52:55.911Z,10.07
2023-02-13T09:55:28.631Z,10.83
2023-02-13T09:58:06.299Z,15.77
2023-02-13T10:00:40.543Z,13.47
2023-02-13T10:03:27.527Z,10.87
2023-02-13T10:06:02.976Z,12.10
2023-02-13T10:08:42.933Z,10.97
2023-02-13T10:11:35.251Z,10.70
2023-02-13T10:14:21.917Z,11.07
2023-02-13T10:16:54.895Z,11.87
2023-02-13T10:19:36.142Z,17.37
2023-02-13T10:22:08.912Z,11.47
2023-02-13T10:24:41.605Z,13.27
2023-02-13T10:27:22.801Z,13.23
2023-02-13T10:30:06.960Z,12.73
2023-02-13T10:32:50.599Z,12.17
2023-02-13T10:35:24.684Z,12.83
2023-02-13T10:38:01.138Z,13.43
2023-02-13T10:40:40.548Z,17.83
2023-02-13T10:43:12.282Z,15.13
2023-02-13T10:46:08.894Z,17.17
2023-02-13T10:48:54.017Z,13.47
2023-02-13T10:51:33.702Z,13.40
2023-02-13T10:54:22.299Z,14.80
2023-02-13T10:56:58.953Z,15.87
2023-02-13T10:59:51.608Z,14.43
2023-02-13T11:02:29.938Z,12.53
2023-02-13T11:05:04.476Z,16.33
2023-02-13T11:07:33.891Z,11.97
2023-02-13T11:10:07.152Z,14.27
2023-02-13T11:12:38.464Z,12.83
2023-02-13T11:15:21.361Z,13.13
2023-02-13T11:17:52.901Z,10.63
2023-02-13T11:20:33.072Z,11.83
2023-02-13T11:23:23.551Z,14.83
2023-02-13T11:26:02.840Z,10.90
2023-02-13T11:28:33.876Z,12.30
2023-02-13T11:31:19.444Z,11.77
2023-02-13T11:33:51.482Z,12.40
2023-02-13T11:36:28.347Z,11.97
2023-02-13T11:39:01.731Z,12.20
2023-02-13T11:41:33.951Z,11.40
2023-02-13T11:44:06.440Z,11.83
2023-02-13T11:46:48.443Z,9.37
2023-02-13T11:49:21.558Z,11.03
2023-02-13T11:51:53.482Z,19.27
2023-02-13T11:54:29.316Z,10.30
2023-02-13T11:57:06.797Z,13.27
2023-02-13T12:02:30.872Z,11.40
2023-02-13T12:05:19.231Z,13.53
2023-02-13T12:07:48.659Z,11.03
2023-02-13T12:10:23.659Z,13.00
2023-02-13T12:12:56.771Z,13.10
2023-02-13T12:15:28.286Z,11.73
2023-02-13T12:18:06.142Z,12.37
2023-02-13T12:20:44.806Z,12.97
2023-02-13T12:23:28.223Z,15.70
2023-02-13T12:26:17.934Z,12.67
2023-02-13T12:29:09.403Z,14.93
2023-02-13T12:31:54.438Z,10.90
2023-02-13T12:34:56.640Z,11.00
2023-02-13T12:37:53.339Z,13.17
2023-02-13T12:44:19.622Z,10.37
2023-02-13T12:46:56.249Z,11.77
2023-02-13T12:49:49.984Z,12.97
2023-02-13T12:52:35.746Z,12.70
2023-02-13T12:55:20.605Z,10.43
2023-02-13T12:58:05.280Z,11.43
2023-02-13T13:00:45.092Z,20.53
2023-02-13T13:03:35.073Z,10.97
2023-02-13T13:06:15.522Z,14.37
2023-02-13T13:09:18.977Z,10.20
2023-02-13T13:12:11.608Z,14.30
2023-02-13T13:14:50.015Z,12.40
2023-02-13T13:17:37.480Z,10.90
2023-02-13T13:20:23.848Z,13.07
2023-02-13T13:22:57.348Z,13.70
2023-02-13T13:25:33.155Z,11.30
2023-02-13T13:28:07.614Z,12.67
2023-02-13T13:30:39.731Z,15.47
2023-02-13T13:33:17.394Z,15.90
2023-02-13T13:35:54.211Z,17.80
2023-02-13T13:38:31.942Z,15.63
2023-02-13T13:41:07.934Z,21.67
2023-02-13T13:43:51.405Z,16.27
2023-02-13T13:46:26.359Z,15.17
2023-02-13T13:49:25.345Z,15.00
2023-02-13T13:51:53.788Z,12.63
2023-02-13T13:54:53.076Z,15.10
2023-02-13T13:57:26.229Z,14.30
2023-02-13T14:00:32.906Z,13.93
2023-02-13T14:03:26.335Z,17.43
2023-02-13T14:06:08.480Z,14.97
2023-02-13T14:09:37.921Z,17.07
2023-02-13T14:12:41.545Z,13.37
2023-02-13T14:15:50.377Z,16.23
2023-02-13T14:18:27.890Z,12.23
2023-02-13T14:20:59.357Z,14.67
2023-02-13T14:23:50.464Z,16.20
2023-02-13T14:26:34.917Z,16.77
2023-02-13T14:29:28.900Z,17.23
2023-02-13T14:32:27.130Z,17.87
2023-02-13T14:35:01.142Z,21.97
2023-02-13T14:37:40.490Z,15.00
2023-02-13T14:40:45.423Z,16.43
2023-02-13T14:43:35.869Z,12.50
2023-02-13T14:46:11.021Z,12.50
2023-02-13T14:48:46.878Z,12.93
2023-02-13T14:51:28.853Z,12.77
2023-02-13T14:54:02.889Z,14.43
2023-02-13T14:56:33.057Z,11.67
2023-02-13T14:59:12.059Z,11.27
2023-02-13T15:01:53.059Z,12.15
2023-02-13T15:04:40.522Z,12.25
2023-02-13T15:07:26.773Z,11.15
2023-02-13T15:10:01.600Z,11.65
2023-02-13T15:12:35.281Z,16.20
2023-02-13T15:15:25.069Z,16.15
2023-02-13T15:18:03.586Z,23.65
2023-02-13T15:20:37.150Z,15.55
2023-02-13T15:23:09.723Z,13.32
2023-02-13T15:25:40.285Z,11.82
2023-02-13T15:28:20.757Z,17.33
2023-02-13T15:30:56.067Z,12.37
2023-02-13T15:33:27.478Z,18.57
2023-02-13T15:35:58.392Z,16.63
2023-02-13T15:38:32.211Z,18.30
2023-02-13T15:41:05.377Z,12.70
2023-02-13T15:43:37.081Z,18.00
2023-02-13T15:46:08.056Z,13.83
2023-02-13T15:48:36.876Z,12.30
2023-02-13T15:51:05.445Z,15.00
2023-02-13T15:53:35.246Z,16.27
2023-02-13T15:56:05.481Z,15.17
2023-02-13T15:58:36.301Z,14.23
2023-02-13T16:01:08.089Z,19.40
2023-02-13T16:03:37.982Z,12.83
2023-02-13T16:06:09.133Z,23.93
2023-02-13T16:08:46.408Z,16.63
2023-02-13T16:11:42.166Z,19.33
2023-02-13T16:14:21.174Z,15.23
2023-02-13T16:16:53.601Z,12.53
2023-02-13T16:19:30.203Z,17.73
2023-02-13T16:22:01.481Z,18.77
2023-02-13T16:24:32.222Z,16.33
2023-02-13T16:27:00.748Z,16.97
2023-02-13T16:29:28.927Z,17.17
2023-02-13T16:32:05.783Z,15.80
2023-02-13T16:34:33.930Z,27.20
2023-02-13T16:37:02.007Z,17.33
2023-02-13T16:39:33.904Z,16.27
2023-02-13T16:42:02.899Z,17.40
2023-02-13T16:44:32.451Z,15.20
2023-02-13T16:47:02.996Z,16.80
2023-02-13T16:49:34.170Z,21.53
2023-02-13T16:52:12.702Z,15.57
2023-02-13T16:54:56.153Z,14.90
2023-02-13T16:57:30.237Z,18.93
2023-02-13T17:00:15.865Z,20.80
2023-02-13T17:02:44.099Z,17.43
2023-02-13T17:05:22.525Z,16.60
2023-02-13T17:07:55.434Z,14.53
2023-02-13T17:10:27.707Z,15.27
2023-02-13T17:12:58.505Z,14.47
2023-02-13T17:15:28.627Z,17.90
2023-02-13T17:17:56.954Z,19.37
2023-02-13T17:20:27.909Z,19.80
2023-02-13T17:22:58.191Z,26.63
2023-02-13T17:25:29.642Z,18.87
2023-02-13T17:28:01.009Z,19.97
2023-02-13T17:30:32.935Z,20.67
2023-02-13T17:33:07.619Z,19.93
2023-02-13T17:35:37.321Z,31.33
2023-02-13T17:38:10.218Z,17.60
2023-02-13T17:40:41.527Z,22.83
2023-02-13T17:43:13.014Z,20.67
2023-02-13T17:45:41.308Z,23.90
2023-02-13T17:48:09.693Z,18.97
2023-02-13T17:50:38.267Z,21.97
2023-02-13T17:53:10.219Z,20.10
2023-02-13T17:55:42.595Z,23.30
2023-02-13T17:58:11.368Z,21.13
2023-02-13T18:00:40.079Z,22.63
2023-02-13T18:03:09.171Z,19.93
2023-02-13T18:05:39.091Z,29.33
2023-02-13T18:08:07.779Z,27.40
2023-02-13T18:10:38.093Z,26.80
2023-02-13T18:13:08.535Z,26.97
2023-02-13T18:15:42.793Z,23.87
2023-02-13T18:18:13.618Z,30.43
2023-02-13T18:20:50.056Z,31.90
2023-02-13T18:23:31.464Z,26.73
2023-02-13T18:26:12.791Z,34.23
2023-02-13T18:28:44.202Z,26.93
2023-02-13T18:31:17.423Z,26.73
2023-02-13T18:36:57.053Z,37.13
2023-02-13T18:39:27.327Z,31.43
2023-02-13T18:41:57.552Z,28.50
2023-02-13T18:44:29.177Z,31.43
2023-02-13T18:46:57.536Z,25.23
2023-02-13T18:49:26.114Z,25.90
2023-02-13T18:51:54.701Z,30.83
2023-02-13T18:54:24.346Z,25.40
2023-02-13T18:56:53.200Z,28.70
2023-02-13T18:59:22.164Z,25.67
2023-02-13T19:01:52.816Z,27.27
2023-02-13T19:04:20.988Z,26.67
2023-02-13T19:06:48.952Z,26.93
2023-02-13T19:09:16.999Z,23.53
2023-02-13T19:11:45.982Z,26.17
2023-02-13T19:14:15.356Z,29.60
2023-02-13T19:16:43.619Z,24.87
2023-02-13T19:19:13.136Z,28.10
2023-02-13T19:21:41.289Z,25.13
2023-02-13T19:24:10.981Z,27.03
2023-02-13T19:26:39.027Z,25.27
2023-02-13T19:29:07.072Z,29.23
2023-02-13T19:31:35.569Z,28.03
2023-02-13T19:34:05.956Z,25.37
2023-02-13T19:36:35.545Z,27.30
2023-02-13T19:39:06.832Z,28.90
2023-02-13T19:41:35.995Z,32.40
2023-02-13T19:44:05.418Z,28.70
2023-02-13T19:46:34.046Z,26.93
2023-02-13T19:49:03.172Z,36.27
2023-02-13T19:51:32.801Z,47.10
2023-02-13T19:54:04.564Z,29.77
2023-02-13T19:56:36.527Z,40.07
2023-02-13T19:59:05.347Z,30.20
2023-02-13T20:01:33.531Z,31.67
2023-02-13T20:04:01.575Z,29.73
2023-02-13T20:06:33.531Z,36.07
2023-02-13T20:09:06.615Z,28.43
2023-02-13T20:11:34.747Z,31.30
2023-02-13T20:14:04.984Z,27.73
2023-02-13T20:16:36.672Z,27.07
2023-02-13T20:19:09.233Z,28.67
2023-02-13T20:21:37.616Z,27.00
2023-02-13T20:24:07.770Z,27.70
2023-02-13T20:26:38.136Z,28.13
2023-02-13T20:29:06.667Z,25.73
2023-02-13T20:31:35.031Z,30.53
2023-02-13T20:34:07.263Z,26.57
2023-02-13T20:36:50.366Z,26.73
2023-02-13T20:42:41.285Z,34.53
2023-02-13T20:45:10.347Z,36.63
2023-02-13T20:47:38.363Z,27.57
2023-02-13T20:50:07.101Z,52.07
2023-02-13T20:52:35.999Z,47.63
2023-02-13T20:55:04.441Z,35.77
2023-02-13T20:57:34.832Z,58.43
2023-02-13T21:00:06.337Z,39.30
2023-02-13T21:02:36.180Z,33.47
2023-02-13T21:05:05.347Z,31.20
2023-02-13T21:07:35.574Z,29.97
2023-02-13T21:10:05.999Z,29.03
2023-02-13T21:12:35.071Z,29.43
2023-02-13T21:15:05.149Z,27.13
2023-02-13T21:17:34.124Z,27.57
2023-02-13T21:20:02.503Z,32.30
2023-02-13T21:22:31.389Z,28.83
2023-02-13T21:24:59.546Z,33.33
2023-02-13T21:27:28.498Z,30.27
2023-02-13T21:29:57.299Z,26.27
2023-02-13T21:32:27.273Z,30.33
2023-02-13T21:34:56.788Z,26.77
2023-02-13T21:37:24.839Z,29.10
2023-02-13T21:39:52.888Z,28.40
2023-02-13T21:42:21.504Z,29.43
2023-02-13T21:44:49.655Z,31.13
2023-02-13T21:47:18.432Z,27.83
2023-02-13T21:49:49.437Z,30.27
2023-02-13T21:52:18.899Z,31.60
2023-02-13T21:54:49.327Z,30.90
2023-02-13T21:57:20.646Z,33.27
2023-02-13T21:59:48.861Z,29.53
2023-02-13T22:02:17.441Z,29.10
2023-02-13T22:04:46.080Z,27.77
2023-02-13T22:07:15.526Z,33.87
2023-02-13T22:09:43.495Z,36.37
2023-02-13T22:12:11.481Z,38.17
2023-02-13T22:14:39.571Z,35.73
2023-02-13T22:17:07.637Z,33.97
2023-02-13T22:19:35.781Z,36.30
2023-02-13T22:22:03.838Z,38.93
2023-02-13T22:24:33.842Z,35.70
2023-02-13T22:27:03.210Z,35.50
2023-02-13T22:29:31.292Z,37.43
2023-02-13T22:31:59.480Z,36.63
2023-02-13T22:34:27.549Z,37.80
2023-02-13T22:36:55.751Z,37.27
2023-02-13T22:39:23.835Z,33.83
2023-02-13T22:41:56.911Z,35.10
2023-02-13T22:44:24.876Z,36.77
2023-02-13T22:46:52.866Z,37.00
2023-02-13T22:49:20.968Z,39.37
2023-02-13T22:51:48.943Z,34.43
2023-02-13T22:54:17.050Z,38.87
2023-02-13T22:56:45.096Z,45.23
2023-02-13T22:59:14.565Z,40.73
2023-02-13T23:01:42.593Z,40.83
2023-02-13T23:04:10.703Z,37.73
2023-02-13T23:06:38.688Z,39.63
2023-02-13T23:09:08.260Z,34.17
2023-02-13T23:11:53.606Z,34.37
2023-02-13T23:14:26.172Z,35.73
2023-02-13T23:17:11.584Z,34.17
2023-02-13T23:19:39.491Z,41.73
2023-02-13T23:22:07.677Z,39.40
2023-02-13T23:24:35.736Z,41.10
2023-02-13T23:27:03.765Z,47.97
2023-02-13T23:29:33.224Z,36.70
2023-02-13T23:32:01.413Z,43.03
2023-02-13T23:34:29.607Z,43.40
2023-02-13T23:36:57.628Z,39.50
2023-02-13T23:39:25.772Z,41.93
2023-02-13T23:41:54.340Z,40.60
2023-02-13T23:44:22.398Z,37.57
2023-02-13T23:46:51.896Z,46.00
2023-02-13T23:49:21.025Z,44.13
2023-02-13T23:51:49.453Z,38.37
2023-02-13T23:54:18.740Z,39.20
2023-02-13T23:56:47.184Z,38.70
2023-02-13T23:59:16.610Z,43.80
